sensor_id;sensor_type;location;lat;lon;timestamp;pressure;altitude;pressure_sealevel;temperature;humidity
28630;BME280;15817;42.130;24.762;2022-11-21T00:00:54;98637.44;;;13.47;100.00
28630;BME280;15817;42.130;24.762;2022-11-21T00:03:20;98656.75;;;13.54;100.00
28630;BME280;15817;42.130;24.762;2022-11-21T00:05:49;98663.28;;;13.47;100.00
28630;BME280;15817;42.130;24.762;2022-11-21T00:08:20;98666.97;;;13.43;100.00
28630;BME280;15817;42.130;24.762;2022-11-21T00:10:50;98625.28;;;13.38;100.00
28630;BME280;15817;42.130;24.762;2022-11-21T00:13:18;98614.47;;;13.41;100.00
28630;BME280;15817;42.130;24.762;2022-11-21T00:15:48;98583.34;;;13.40;100.00
28630;BME280;15817;42.130;24.762;2022-11-21T00:18:14;98579.88;;;13.38;100.00
28630;BME280;15817;42.130;24.762;2022-11-21T00:20:53;98566.50;;;13.38;100.00
28630;BME280;15817;42.130;24.762;2022-11-21T00:23:19;98561.19;;;13.38;100.00
28630;BME280;15817;42.130;24.762;2022-11-21T00:26:13;98561.38;;;13.34;100.00
28630;BME280;15817;42.130;24.762;2022-11-21T00:29:27;98563.06;;;13.36;100.00
28630;BME280;15817;42.130;24.762;2022-11-21T00:31:53;98550.69;;;13.34;100.00
28630;BME280;15817;42.130;24.762;2022-11-21T00:34:21;98571.19;;;13.33;100.00
28630;BME280;15817;42.130;24.762;2022-11-21T00:40:23;98543.81;;;13.27;100.00
28630;BME280;15817;42.130;24.762;2022-11-21T00:42:49;98540.16;;;13.29;100.00
28630;BME280;15817;42.130;24.762;2022-11-21T00:45:15;98551.72;;;13.30;100.00
28630;BME280;15817;42.130;24.762;2022-11-21T00:47:41;98538.47;;;13.27;100.00
28630;BME280;15817;42.130;24.762;2022-11-21T00:50:07;98537.50;;;13.29;100.00
28630;BME280;15817;42.130;24.762;2022-11-21T00:52:34;98532.22;;;13.28;100.00
28630;BME280;15817;42.130;24.762;2022-11-21T00:55:00;98518.94;;;13.26;100.00
28630;BME280;15817;42.130;24.762;2022-11-21T01:01:13;98599.31;;;13.19;100.00
28630;BME280;15817;42.130;24.762;2022-11-21T01:03:42;98617.94;;;13.20;100.00
28630;BME280;15817;42.130;24.762;2022-11-21T01:06:13;98629.59;;;13.18;100.00
28630;BME280;15817;42.130;24.762;2022-11-21T01:08:41;98656.31;;;13.18;100.00
28630;BME280;15817;42.130;24.762;2022-11-21T01:11:12;98672.28;;;13.19;100.00
28630;BME280;15817;42.130;24.762;2022-11-21T01:13:39;98649.22;;;13.17;100.00
28630;BME280;15817;42.130;24.762;2022-11-21T01:16:08;98671.59;;;13.13;100.00
28630;BME280;15817;42.130;24.762;2022-11-21T01:18:34;98674.25;;;13.13;100.00
28630;BME280;15817;42.130;24.762;2022-11-21T01:21:01;98681.34;;;13.15;100.00
28630;BME280;15817;42.130;24.762;2022-11-21T01:23:28;98697.34;;;13.15;100.00
28630;BME280;15817;42.130;24.762;2022-11-21T01:25:53;98741.78;;;13.16;100.00
28630;BME280;15817;42.130;24.762;2022-11-21T01:28:19;98722.31;;;13.13;100.00
28630;BME280;15817;42.130;24.762;2022-11-21T01:30:48;98678.94;;;13.06;100.00
28630;BME280;15817;42.130;24.762;2022-11-21T01:33:16;98574.84;;;13.06;100.00
28630;BME280;15817;42.130;24.762;2022-11-21T01:35:45;98533.13;;;13.03;100.00
28630;BME280;15817;42.130;24.762;2022-11-21T01:38:13;98546.13;;;13.13;100.00
28630;BME280;15817;42.130;24.762;2022-11-21T01:40:39;98555.78;;;13.17;100.00
28630;BME280;15817;42.130;24.762;2022-11-21T01:43:14;98571.75;;;13.18;100.00
28630;BME280;15817;42.130;24.762;2022-11-21T01:45:53;98566.34;;;13.20;100.00
28630;BME280;15817;42.130;24.762;2022-11-21T01:48:38;98560.16;;;13.19;100.00
28630;BME280;15817;42.130;24.762;2022-11-21T01:56:29;98588.59;;;13.20;100.00
28630;BME280;15817;42.130;24.762;2022-11-21T01:58:59;98603.72;;;13.20;100.00
28630;BME280;15817;42.130;24.762;2022-11-21T02:01:28;98611.84;;;13.17;100.00
28630;BME280;15817;42.130;24.762;2022-11-21T02:03:55;98597.63;;;13.16;100.00
28630;BME280;15817;42.130;24.762;2022-11-21T02:06:23;98598.34;;;13.21;100.00
28630;BME280;15817;42.130;24.762;2022-11-21T02:08:50;98596.50;;;13.23;100.00
28630;BME280;15817;42.130;24.762;2022-11-21T02:11:32;98608.09;;;13.22;100.00
28630;BME280;15817;42.130;24.762;2022-11-21T02:14:03;98582.47;;;13.17;100.00
28630;BME280;15817;42.130;24.762;2022-11-21T02:16:30;98573.50;;;13.19;100.00
28630;BME280;15817;42.130;24.762;2022-11-21T02:18:55;98580.63;;;13.19;100.00
28630;BME280;15817;42.130;24.762;2022-11-21T02:21:53;98558.34;;;13.20;100.00
28630;BME280;15817;42.130;24.762;2022-11-21T02:24:37;98543.34;;;13.16;100.00
28630;BME280;15817;42.130;24.762;2022-11-21T02:27:04;98547.78;;;13.17;100.00
28630;BME280;15817;42.130;24.762;2022-11-21T02:29:31;98556.81;;;13.13;100.00
28630;BME280;15817;42.130;24.762;2022-11-21T02:32:02;98525.69;;;13.12;100.00
28630;BME280;15817;42.130;24.762;2022-11-21T02:34:30;98520.41;;;13.10;100.00
28630;BME280;15817;42.130;24.762;2022-11-21T02:36:56;98535.66;;;13.06;100.00
28630;BME280;15817;42.130;24.762;2022-11-21T02:39:43;98531.19;;;13.07;100.00
28630;BME280;15817;42.130;24.762;2022-11-21T02:42:24;98535.56;;;13.10;100.00
28630;BME280;15817;42.130;24.762;2022-11-21T02:47:34;98525.28;;;12.99;100.00
28630;BME280;15817;42.130;24.762;2022-11-21T02:50:15;98519.03;;;13.00;100.00
28630;BME280;15817;42.130;24.762;2022-11-21T02:52:44;98503.00;;;13.00;100.00
28630;BME280;15817;42.130;24.762;2022-11-21T02:55:10;98509.28;;;12.99;100.00
28630;BME280;15817;42.130;24.762;2022-11-21T02:57:40;98516.31;;;13.01;100.00
28630;BME280;15817;42.130;24.762;2022-11-21T03:00:08;98529.66;;;13.01;100.00
28630;BME280;15817;42.130;24.762;2022-11-21T03:02:41;98517.44;;;12.94;100.00
28630;BME280;15817;42.130;24.762;2022-11-21T03:05:08;98522.66;;;12.97;100.00
28630;BME280;15817;42.130;24.762;2022-11-21T03:07:34;98518.44;;;12.92;100.00
28630;BME280;15817;42.130;24.762;2022-11-21T03:10:00;98530.91;;;12.91;100.00
28630;BME280;15817;42.130;24.762;2022-11-21T03:12:27;98537.97;;;12.92;100.00
28630;BME280;15817;42.130;24.762;2022-11-21T03:14:52;98533.69;;;12.88;100.00
28630;BME280;15817;42.130;24.762;2022-11-21T03:17:18;98544.41;;;12.87;100.00
28630;BME280;15817;42.130;24.762;2022-11-21T03:19:44;98527.63;;;12.83;100.00
28630;BME280;15817;42.130;24.762;2022-11-21T03:22:14;98525.16;;;12.79;100.00
28630;BME280;15817;42.130;24.762;2022-11-21T03:24:40;98549.75;;;12.87;100.00
28630;BME280;15817;42.130;24.762;2022-11-21T03:27:06;98482.13;;;12.88;100.00
28630;BME280;15817;42.130;24.762;2022-11-21T03:29:32;98509.88;;;12.82;100.00
28630;BME280;15817;42.130;24.762;2022-11-21T03:31:58;98513.16;;;12.90;100.00
28630;BME280;15817;42.130;24.762;2022-11-21T03:34:24;98507.00;;;12.88;100.00
28630;BME280;15817;42.130;24.762;2022-11-21T03:36:50;98479.50;;;12.86;100.00
28630;BME280;15817;42.130;24.762;2022-11-21T03:39:16;98466.16;;;12.86;100.00
28630;BME280;15817;42.130;24.762;2022-11-21T03:41:42;98473.31;;;12.86;100.00
28630;BME280;15817;42.130;24.762;2022-11-21T03:44:09;98477.81;;;12.84;100.00
28630;BME280;15817;42.130;24.762;2022-11-21T03:46:40;98486.63;;;12.86;100.00
28630;BME280;15817;42.130;24.762;2022-11-21T03:49:07;98474.13;;;12.88;100.00
28630;BME280;15817;42.130;24.762;2022-11-21T03:51:33;98459.91;;;12.87;100.00
28630;BME280;15817;42.130;24.762;2022-11-21T03:53:59;98473.13;;;12.90;100.00
28630;BME280;15817;42.130;24.762;2022-11-21T03:56:25;98465.28;;;12.86;100.00
28630;BME280;15817;42.130;24.762;2022-11-21T03:58:52;98458.22;;;12.85;100.00
28630;BME280;15817;42.130;24.762;2022-11-21T04:01:18;98466.28;;;12.83;100.00
28630;BME280;15817;42.130;24.762;2022-11-21T04:03:45;98487.03;;;12.75;100.00
28630;BME280;15817;42.130;24.762;2022-11-21T04:06:13;98469.75;;;12.62;100.00
28630;BME280;15817;42.130;24.762;2022-11-21T04:08:40;98444.69;;;12.66;100.00
28630;BME280;15817;42.130;24.762;2022-11-21T04:11:07;98465.94;;;12.69;100.00
28630;BME280;15817;42.130;24.762;2022-11-21T04:13:32;98478.75;;;12.58;100.00
28630;BME280;15817;42.130;24.762;2022-11-21T04:16:00;98494.03;;;12.54;100.00
28630;BME280;15817;42.130;24.762;2022-11-21T04:18:26;98492.06;;;12.59;100.00
28630;BME280;15817;42.130;24.762;2022-11-21T04:20:56;98496.50;;;12.59;100.00
28630;BME280;15817;42.130;24.762;2022-11-21T04:23:22;98491.06;;;12.62;100.00
28630;BME280;15817;42.130;24.762;2022-11-21T04:25:48;98487.53;;;12.61;100.00
28630;BME280;15817;42.130;24.762;2022-11-21T04:28:14;98478.72;;;12.59;100.00
28630;BME280;15817;42.130;24.762;2022-11-21T04:30:40;98480.50;;;12.59;100.00
28630;BME280;15817;42.130;24.762;2022-11-21T04:33:05;98468.19;;;12.56;100.00
28630;BME280;15817;42.130;24.762;2022-11-21T04:35:31;98460.03;;;12.59;100.00
28630;BME280;15817;42.130;24.762;2022-11-21T04:37:57;98474.31;;;12.58;100.00
28630;BME280;15817;42.130;24.762;2022-11-21T04:40:23;98492.22;;;12.55;100.00
28630;BME280;15817;42.130;24.762;2022-11-21T04:42:49;98485.38;;;12.48;100.00
28630;BME280;15817;42.130;24.762;2022-11-21T04:45:15;98466.81;;;12.45;100.00
28630;BME280;15817;42.130;24.762;2022-11-21T04:47:43;98454.47;;;12.42;100.00
28630;BME280;15817;42.130;24.762;2022-11-21T04:50:12;98463.06;;;12.50;100.00
28630;BME280;15817;42.130;24.762;2022-11-21T04:52:39;98458.59;;;12.51;100.00
28630;BME280;15817;42.130;24.762;2022-11-21T04:55:07;98472.22;;;12.43;100.00
28630;BME280;15817;42.130;24.762;2022-11-21T04:57:33;98502.50;;;12.41;100.00
28630;BME280;15817;42.130;24.762;2022-11-21T04:59:59;98509.50;;;12.45;100.00
28630;BME280;15817;42.130;24.762;2022-11-21T05:02:27;98480.41;;;12.37;100.00
28630;BME280;15817;42.130;24.762;2022-11-21T05:04:53;98468.81;;;12.38;100.00
28630;BME280;15817;42.130;24.762;2022-11-21T05:07:19;98480.47;;;12.36;100.00
28630;BME280;15817;42.130;24.762;2022-11-21T05:09:45;98477.94;;;12.32;100.00
28630;BME280;15817;42.130;24.762;2022-11-21T05:12:11;98465.56;;;12.30;100.00
28630;BME280;15817;42.130;24.762;2022-11-21T05:14:55;98472.78;;;12.26;100.00
28630;BME280;15817;42.130;24.762;2022-11-21T05:17:27;98483.50;;;12.25;100.00
28630;BME280;15817;42.130;24.762;2022-11-21T05:19:53;98485.19;;;12.27;100.00
28630;BME280;15817;42.130;24.762;2022-11-21T05:22:21;98494.22;;;12.23;100.00
28630;BME280;15817;42.130;24.762;2022-11-21T05:24:47;98470.31;;;12.22;100.00
28630;BME280;15817;42.130;24.762;2022-11-21T05:27:13;98456.91;;;12.23;100.00
28630;BME280;15817;42.130;24.762;2022-11-21T05:29:39;98454.84;;;12.31;100.00
28630;BME280;15817;42.130;24.762;2022-11-21T05:32:17;98442.75;;;12.23;100.00
28630;BME280;15817;42.130;24.762;2022-11-21T05:34:49;98456.91;;;12.23;100.00
28630;BME280;15817;42.130;24.762;2022-11-21T05:37:15;98454.84;;;12.31;100.00
28630;BME280;15817;42.130;24.762;2022-11-21T05:39:43;98471.59;;;12.35;100.00
28630;BME280;15817;42.130;24.762;2022-11-21T05:42:09;98490.09;;;12.40;100.00
28630;BME280;15817;42.130;24.762;2022-11-21T05:44:34;98494.47;;;12.42;100.00
28630;BME280;15817;42.130;24.762;2022-11-21T05:47:00;98485.75;;;12.37;100.00
28630;BME280;15817;42.130;24.762;2022-11-21T05:49:29;98507.78;;;12.42;100.00
28630;BME280;15817;42.130;24.762;2022-11-21T05:51:55;98492.00;;;12.36;100.00
28630;BME280;15817;42.130;24.762;2022-11-21T05:54:26;98502.56;;;12.39;100.00
28630;BME280;15817;42.130;24.762;2022-11-21T05:56:52;98487.50;;;12.38;100.00
28630;BME280;15817;42.130;24.762;2022-11-21T05:59:18;98522.19;;;12.37;100.00
28630;BME280;15817;42.130;24.762;2022-11-21T06:01:46;98493.88;;;12.34;100.00
28630;BME280;15817;42.130;24.762;2022-11-21T06:04:30;98500.00;;;12.36;100.00
28630;BME280;15817;42.130;24.762;2022-11-21T06:06:56;98532.66;;;12.43;100.00
28630;BME280;15817;42.130;24.762;2022-11-21T06:09:26;98523.75;;;12.44;100.00
28630;BME280;15817;42.130;24.762;2022-11-21T06:11:55;98536.25;;;12.42;100.00
28630;BME280;15817;42.130;24.762;2022-11-21T06:14:21;98532.00;;;12.36;100.00
28630;BME280;15817;42.130;24.762;2022-11-21T06:16:56;98536.25;;;12.42;100.00
28630;BME280;15817;42.130;24.762;2022-11-21T06:19:28;98528.22;;;12.43;100.00
28630;BME280;15817;42.130;24.762;2022-11-21T06:21:58;98511.44;;;12.40;100.00
28630;BME280;15817;42.130;24.762;2022-11-21T06:27:11;98494.47;;;12.42;100.00
28630;BME280;15817;42.130;24.762;2022-11-21T06:29:36;98509.25;;;12.51;100.00
28630;BME280;15817;42.130;24.762;2022-11-21T06:32:12;98511.09;;;12.49;100.00
28630;BME280;15817;42.130;24.762;2022-11-21T06:34:38;98506.66;;;12.49;100.00
28630;BME280;15817;42.130;24.762;2022-11-21T06:37:03;98508.50;;;12.47;100.00
28630;BME280;15817;42.130;24.762;2022-11-21T06:39:29;98503.25;;;12.46;100.00
28630;BME280;15817;42.130;24.762;2022-11-21T06:41:55;98512.84;;;12.50;100.00
28630;BME280;15817;42.130;24.762;2022-11-21T06:44:21;98534.09;;;12.53;100.00
28630;BME280;15817;42.130;24.762;2022-11-21T06:46:46;98531.63;;;12.47;100.00
28630;BME280;15817;42.130;24.762;2022-11-21T06:49:12;98524.50;;;12.47;100.00
28630;BME280;15817;42.130;24.762;2022-11-21T06:51:40;98542.13;;;12.51;100.00
28630;BME280;15817;42.130;24.762;2022-11-21T06:54:06;98540.44;;;12.49;100.00
28630;BME280;15817;42.130;24.762;2022-11-21T06:56:32;98537.66;;;12.52;100.00
28630;BME280;15817;42.130;24.762;2022-11-21T06:59:00;98556.25;;;12.55;100.00
28630;BME280;15817;42.130;24.762;2022-11-21T07:01:26;98552.69;;;12.54;100.00
28630;BME280;15817;42.130;24.762;2022-11-21T07:03:52;98547.31;;;12.56;100.00
28630;BME280;15817;42.130;24.762;2022-11-21T07:06:21;98553.41;;;12.59;100.00
28630;BME280;15817;42.130;24.762;2022-11-21T07:08:52;98538.44;;;12.55;100.00
28630;BME280;15817;42.130;24.762;2022-11-21T07:11:21;98548.94;;;12.60;100.00
28630;BME280;15817;42.130;24.762;2022-11-21T07:13:47;98539.31;;;12.56;100.00
28630;BME280;15817;42.130;24.762;2022-11-21T07:16:13;98537.34;;;12.61;100.00
28630;BME280;15817;42.130;24.762;2022-11-21T07:18:39;98523.13;;;12.60;100.00
28630;BME280;15817;42.130;24.762;2022-11-21T07:21:06;98535.50;;;12.63;100.00
28630;BME280;15817;42.130;24.762;2022-11-21T07:23:33;98531.13;;;12.60;100.00
28630;BME280;15817;42.130;24.762;2022-11-21T07:26:00;98553.09;;;12.68;100.00
28630;BME280;15817;42.130;24.762;2022-11-21T07:28:29;98542.56;;;12.64;100.00
28630;BME280;15817;42.130;24.762;2022-11-21T07:30:56;98561.84;;;12.72;100.00
28630;BME280;15817;42.130;24.762;2022-11-21T07:33:22;98573.31;;;12.74;100.00
28630;BME280;15817;42.130;24.762;2022-11-21T07:35:48;98557.66;;;12.65;100.00
28630;BME280;15817;42.130;24.762;2022-11-21T07:38:14;98562.03;;;12.67;100.00
28630;BME280;15817;42.130;24.762;2022-11-21T07:40:40;98556.63;;;12.69;100.00
28630;BME280;15817;42.130;24.762;2022-11-21T07:43:06;98573.44;;;12.71;100.00
28630;BME280;15817;42.130;24.762;2022-11-21T07:45:33;98569.97;;;12.69;100.00
28630;BME280;15817;42.130;24.762;2022-11-21T07:48:00;98579.53;;;12.75;100.00
28630;BME280;15817;42.130;24.762;2022-11-21T07:50:29;98574.97;;;12.78;100.00
28630;BME280;15817;42.130;24.762;2022-11-21T07:53:05;98573.97;;;12.81;100.00
28630;BME280;15817;42.130;24.762;2022-11-21T07:55:33;98563.38;;;12.79;100.00
28630;BME280;15817;42.130;24.762;2022-11-21T07:58:04;98575.56;;;12.86;100.00
28630;BME280;15817;42.130;24.762;2022-11-21T08:00:34;98566.63;;;12.87;100.00
28630;BME280;15817;42.130;24.762;2022-11-21T08:03:04;98563.88;;;12.90;100.00
28630;BME280;15817;42.130;24.762;2022-11-21T08:05:30;98577.78;;;12.98;100.00
28630;BME280;15817;42.130;24.762;2022-11-21T08:07:55;98571.59;;;12.98;100.00
28630;BME280;15817;42.130;24.762;2022-11-21T08:10:21;98581.03;;;13.06;100.00
28630;BME280;15817;42.130;24.762;2022-11-21T08:12:47;98586.22;;;13.11;100.00
28630;BME280;15817;42.130;24.762;2022-11-21T08:15:13;98584.22;;;13.18;100.00
28630;BME280;15817;42.130;24.762;2022-11-21T08:17:39;98586.69;;;13.24;100.00
28630;BME280;15817;42.130;24.762;2022-11-21T08:20:08;98602.47;;;13.30;100.00
28630;BME280;15817;42.130;24.762;2022-11-21T08:22:40;98593.75;;;13.25;100.00
28630;BME280;15817;42.130;24.762;2022-11-21T08:25:07;98599.06;;;13.26;100.00
28630;BME280;15817;42.130;24.762;2022-11-21T08:27:36;98592.66;;;13.30;100.00
28630;BME280;15817;42.130;24.762;2022-11-21T08:30:05;98585.81;;;13.23;100.00
28630;BME280;15817;42.130;24.762;2022-11-21T08:32:31;98594.56;;;13.27;100.00
28630;BME280;15817;42.130;24.762;2022-11-21T08:34:57;98586.34;;;13.33;100.00
28630;BME280;15817;42.130;24.762;2022-11-21T08:37:22;98590.50;;;13.40;100.00
28630;BME280;15817;42.130;24.762;2022-11-21T08:39:48;98593.72;;;13.50;100.00
28630;BME280;15817;42.130;24.762;2022-11-21T08:42:14;98593.53;;;13.54;100.00
28630;BME280;15817;42.130;24.762;2022-11-21T08:44:40;98593.22;;;13.62;100.00
28630;BME280;15817;42.130;24.762;2022-11-21T08:47:06;98588.59;;;13.67;100.00
28630;BME280;15817;42.130;24.762;2022-11-21T08:49:31;98599.66;;;13.80;100.00
28630;BME280;15817;42.130;24.762;2022-11-21T08:51:57;98598.38;;;13.90;100.00
28630;BME280;15817;42.130;24.762;2022-11-21T08:54:23;98588.13;;;14.01;100.00
28630;BME280;15817;42.130;24.762;2022-11-21T08:56:49;98593.13;;;14.08;100.00
28630;BME280;15817;42.130;24.762;2022-11-21T08:59:16;98592.69;;;14.19;100.00
28630;BME280;15817;42.130;24.762;2022-11-21T09:01:42;98580.84;;;14.26;100.00
28630;BME280;15817;42.130;24.762;2022-11-21T09:04:08;98571.50;;;14.36;100.00
28630;BME280;15817;42.130;24.762;2022-11-21T09:06:35;98576.41;;;14.47;100.00
28630;BME280;15817;42.130;24.762;2022-11-21T09:09:01;98579.91;;;14.49;100.00
28630;BME280;15817;42.130;24.762;2022-11-21T09:11:29;98569.44;;;14.43;100.00
28630;BME280;15817;42.130;24.762;2022-11-21T09:13:54;98582.91;;;14.41;100.00
28630;BME280;15817;42.130;24.762;2022-11-21T09:16:38;98567.19;;;14.32;100.00
28630;BME280;15817;42.130;24.762;2022-11-21T09:19:25;98576.03;;;14.34;100.00
28630;BME280;15817;42.130;24.762;2022-11-21T09:21:51;98570.91;;;14.30;100.00
28630;BME280;15817;42.130;24.762;2022-11-21T09:24:17;98563.16;;;14.22;100.00
28630;BME280;15817;42.130;24.762;2022-11-21T09:26:46;98562.53;;;14.37;100.00
28630;BME280;15817;42.130;24.762;2022-11-21T09:29:13;98567.34;;;14.71;95.95
28630;BME280;15817;42.130;24.762;2022-11-21T09:31:41;98571.69;;;14.94;93.01
28630;BME280;15817;42.130;24.762;2022-11-21T09:34:08;98565.72;;;15.08;92.57
28630;BME280;15817;42.130;24.762;2022-11-21T09:36:34;98564.31;;;15.19;89.58
28630;BME280;15817;42.130;24.762;2022-11-21T09:39:00;98560.41;;;15.27;88.87
28630;BME280;15817;42.130;24.762;2022-11-21T09:41:29;98559.81;;;15.39;87.55
28630;BME280;15817;42.130;24.762;2022-11-21T09:47:36;98557.34;;;15.54;84.03
28630;BME280;15817;42.130;24.762;2022-11-21T09:53:01;98556.56;;;15.51;85.46
28630;BME280;15817;42.130;24.762;2022-11-21T09:55:45;98566.28;;;15.53;85.68
28630;BME280;15817;42.130;24.762;2022-11-21T09:58:18;98566.97;;;15.77;80.79
28630;BME280;15817;42.130;24.762;2022-11-21T10:00:45;98561.56;;;15.79;81.17
28630;BME280;15817;42.130;24.762;2022-11-21T10:03:12;98571.50;;;15.94;79.81
28630;BME280;15817;42.130;24.762;2022-11-21T10:05:47;98552.16;;;16.06;77.85
28630;BME280;15817;42.130;24.762;2022-11-21T10:08:39;98549.72;;;16.19;78.06
28630;BME280;15817;42.130;24.762;2022-11-21T10:11:20;98553.41;;;16.35;75.57
28630;BME280;15817;42.130;24.762;2022-11-21T10:14:25;98552.44;;;16.53;73.58
28630;BME280;15817;42.130;24.762;2022-11-21T10:17:15;98545.47;;;16.68;70.43
28630;BME280;15817;42.130;24.762;2022-11-21T10:25:21;98544.91;;;16.96;69.95
28630;BME280;15817;42.130;24.762;2022-11-21T10:28:01;98560.91;;;16.97;69.86
28630;BME280;15817;42.130;24.762;2022-11-21T10:30:28;98554.78;;;16.95;71.14
28630;BME280;15817;42.130;24.762;2022-11-21T10:33:01;98564.72;;;16.93;68.56
28630;BME280;15817;42.130;24.762;2022-11-21T10:35:44;98581.38;;;17.00;68.76
28630;BME280;15817;42.130;24.762;2022-11-21T10:40:43;98583.38;;;16.79;78.89
28630;BME280;15817;42.130;24.762;2022-11-21T10:43:30;98582.72;;;16.74;80.21
28630;BME280;15817;42.130;24.762;2022-11-21T10:46:16;98588.19;;;16.73;80.71
28630;BME280;15817;42.130;24.762;2022-11-21T10:48:48;98583.66;;;16.73;84.99
28630;BME280;15817;42.130;24.762;2022-11-21T10:54:20;98576.53;;;16.38;88.90
28630;BME280;15817;42.130;24.762;2022-11-21T10:57:21;98585.88;;;16.29;91.56
28630;BME280;15817;42.130;24.762;2022-11-21T11:00:23;98584.47;;;16.22;89.91
28630;BME280;15817;42.130;24.762;2022-11-21T11:05:24;98588.69;;;16.09;92.17
28630;BME280;15817;42.130;24.762;2022-11-21T11:08:00;98589.00;;;16.03;94.46
28630;BME280;15817;42.130;24.762;2022-11-21T11:10:29;98578.94;;;15.89;97.60
28630;BME280;15817;42.130;24.762;2022-11-21T11:12:56;98597.09;;;15.82;97.36
28630;BME280;15817;42.130;24.762;2022-11-21T11:16:44;98594.00;;;15.73;97.19
28630;BME280;15817;42.130;24.762;2022-11-21T11:22:58;98579.34;;;15.61;96.45
28630;BME280;15817;42.130;24.762;2022-11-21T11:25:26;98586.75;;;15.56;96.40
28630;BME280;15817;42.130;24.762;2022-11-21T11:28:05;98594.63;;;15.59;95.98
28630;BME280;15817;42.130;24.762;2022-11-21T11:30:38;98595.31;;;15.64;94.54
28630;BME280;15817;42.130;24.762;2022-11-21T11:33:37;98592.13;;;15.56;94.55
28630;BME280;15817;42.130;24.762;2022-11-21T11:36:35;98611.81;;;15.55;93.50
28630;BME280;15817;42.130;24.762;2022-11-21T11:40:04;98612.91;;;15.49;92.75
28630;BME280;15817;42.130;24.762;2022-11-21T11:42:57;98611.59;;;15.39;91.79
28630;BME280;15817;42.130;24.762;2022-11-21T11:49:14;98615.72;;;15.28;92.26
28630;BME280;15817;42.130;24.762;2022-11-21T11:52:13;98644.38;;;15.26;91.96
28630;BME280;15817;42.130;24.762;2022-11-21T11:54:57;98639.34;;;15.18;91.74
28630;BME280;15817;42.130;24.762;2022-11-21T11:57:33;98638.63;;;15.14;91.00
28630;BME280;15817;42.130;24.762;2022-11-21T12:00:16;98650.19;;;15.15;92.11
28630;BME280;15817;42.130;24.762;2022-11-21T12:03:07;98652.28;;;15.08;92.19
28630;BME280;15817;42.130;24.762;2022-11-21T12:05:55;98650.88;;;15.00;90.15
28630;BME280;15817;42.130;24.762;2022-11-21T12:08:29;98658.22;;;14.95;89.03
28630;BME280;15817;42.130;24.762;2022-11-21T12:11:08;98663.72;;;14.92;88.81
28630;BME280;15817;42.130;24.762;2022-11-21T12:13:54;98659.56;;;14.84;89.99
28630;BME280;15817;42.130;24.762;2022-11-21T12:16:24;98668.53;;;14.83;90.32
28630;BME280;15817;42.130;24.762;2022-11-21T12:19:25;98666.66;;;14.85;89.38
28630;BME280;15817;42.130;24.762;2022-11-21T12:22:03;98691.28;;;14.94;90.33
28630;BME280;15817;42.130;24.762;2022-11-21T12:24:32;98686.00;;;14.92;90.59
28630;BME280;15817;42.130;24.762;2022-11-21T12:27:04;98688.50;;;14.97;90.58
28630;BME280;15817;42.130;24.762;2022-11-21T12:29:50;98701.75;;;15.00;89.99
28630;BME280;15817;42.130;24.762;2022-11-21T12:35:31;98695.72;;;14.95;86.82
28630;BME280;15817;42.130;24.762;2022-11-21T12:49:32;98704.19;;;14.84;86.44
28630;BME280;15817;42.130;24.762;2022-11-21T12:52:36;98705.13;;;14.83;86.07
28630;BME280;15817;42.130;24.762;2022-11-21T12:55:31;98704.44;;;14.78;85.17
28630;BME280;15817;42.130;24.762;2022-11-21T13:03:57;98730.09;;;14.83;86.09
28630;BME280;15817;42.130;24.762;2022-11-21T13:06:33;98729.06;;;14.88;85.85
28630;BME280;15817;42.130;24.762;2022-11-21T13:09:04;98724.63;;;14.87;85.72
28630;BME280;15817;42.130;24.762;2022-11-21T13:17:28;98718.66;;;15.00;84.82
28630;BME280;15817;42.130;24.762;2022-11-21T13:30:49;98710.50;;;14.83;82.55
28630;BME280;15817;42.130;24.762;2022-11-21T13:36:11;98733.81;;;14.79;83.67
28630;BME280;15817;42.130;24.762;2022-11-21T14:03:35;98745.72;;;14.04;83.17
28630;BME280;15817;42.130;24.762;2022-11-21T14:06:32;98751.13;;;14.02;82.98
28630;BME280;15817;42.130;24.762;2022-11-21T14:09:25;98748.81;;;13.93;83.01
28630;BME280;15817;42.130;24.762;2022-11-21T14:14:42;98756.16;;;13.87;83.50
28630;BME280;15817;42.130;24.762;2022-11-21T14:17:29;98757.03;;;13.87;84.22
28630;BME280;15817;42.130;24.762;2022-11-21T14:19:59;98746.66;;;13.80;83.64
28630;BME280;15817;42.130;24.762;2022-11-21T14:22:26;98758.97;;;13.84;83.69
28630;BME280;15817;42.130;24.762;2022-11-21T14:24:54;98757.38;;;13.78;83.86
28630;BME280;15817;42.130;24.762;2022-11-21T14:27:28;98757.63;;;13.72;83.92
28630;BME280;15817;42.130;24.762;2022-11-21T14:29:55;98759.56;;;13.67;84.07
28630;BME280;15817;42.130;24.762;2022-11-21T14:32:30;98767.59;;;13.67;84.17
28630;BME280;15817;42.130;24.762;2022-11-21T14:35:10;98780.19;;;13.63;84.13
28630;BME280;15817;42.130;24.762;2022-11-21T14:37:43;98765.34;;;13.55;84.09
28630;BME280;15817;42.130;24.762;2022-11-21T14:40:18;98783.09;;;13.57;84.57
28630;BME280;15817;42.130;24.762;2022-11-21T14:42:44;98785.16;;;13.49;83.94
28630;BME280;15817;42.130;24.762;2022-11-21T14:45:19;98789.69;;;13.47;83.73
28630;BME280;15817;42.130;24.762;2022-11-21T14:47:49;98782.63;;;13.45;84.26
28630;BME280;15817;42.130;24.762;2022-11-21T14:50:29;98786.50;;;13.36;84.51
28630;BME280;15817;42.130;24.762;2022-11-21T14:52:58;98780.50;;;13.29;84.69
28630;BME280;15817;42.130;24.762;2022-11-21T14:55:27;98804.44;;;13.32;85.57
28630;BME280;15817;42.130;24.762;2022-11-21T14:57:54;98808.84;;;13.33;85.79